Time;durP1;ratioP1;P1;durP2;ratioP2;P2;SDS_P1;SDS_P2;PMS_P1;PMS_P2;Temp;Humidity;BMP_temperature;BMP_pressure;BME280_temperature;BME280_humidity;BME280_pressure;Samples;Min_cycle;Max_cycle;Signal;HPM_P1;HPM_P2
2022/12/24 00:01:08;;;;;;;43.72;20.25;;;;;;;5.82;100.00;98082.63;4368477;32;20153;-95
2022/12/24 00:03:36;;;;;;;37.58;19.42;;;;;;;5.81;100.00;98078.41;4394177;32;20447;-95
2022/12/24 00:06:05;;;;;;;39.55;19.52;;;;;;;5.78;100.00;98086.41;4380482;32;20079;-95
2022/12/24 00:08:32;;;;;;;38.92;18.77;;;;;;;5.98;100.00;98077.06;4381083;32;20129;-95
2022/12/24 00:10:59;;;;;;;38.20;19.20;;;;;;;6.03;100.00;98074.06;4368286;32;20561;-96
2022/12/24 00:13:26;;;;;;;39.28;19.58;;;;;;;6.05;100.00;98069.56;4380515;32;20094;-95
2022/12/24 00:15:54;;;;;;;38.03;19.30;;;;;;;6.15;100.00;98057.47;4392826;32;20086;-96
2022/12/24 00:18:21;;;;;;;40.28;20.00;;;;;;;6.12;100.00;98051.69;4380607;32;20107;-94
2022/12/24 00:20:49;;;;;;;35.17;17.62;;;;;;;6.14;100.00;98050.59;4368010;32;20567;-95
2022/12/24 00:23:17;;;;;;;36.00;19.65;;;;;;;6.24;100.00;98049.84;4379887;32;20099;-94
2022/12/24 00:25:45;;;;;;;35.03;17.90;;;;;;;6.27;100.00;98057.37;4380358;32;20090;-95
2022/12/24 00:28:13;;;;;;;35.85;17.92;;;;;;;6.27;100.00;98065.19;4367929;32;20118;-95
2022/12/24 00:30:41;;;;;;;36.55;18.25;;;;;;;6.31;100.00;98067.41;4380373;32;20114;-95
2022/12/24 00:33:09;;;;;;;34.88;17.55;;;;;;;6.33;100.00;98068.13;4380216;32;20448;-95
2022/12/24 00:35:37;;;;;;;32.15;18.23;;;;;;;6.34;100.00;98067.19;4367635;32;20098;-96
2022/12/24 00:38:05;;;;;;;37.42;18.60;;;;;;;6.32;100.00;98089.06;4380265;32;20130;-96
2022/12/24 00:40:32;;;;;;;35.15;18.62;;;;;;;6.28;100.00;98104.06;4393481;32;20106;-95
2022/12/24 00:43:00;;;;;;;36.25;18.05;;;;;;;6.27;100.00;98127.63;4380176;32;20158;-95
2022/12/24 00:45:27;;;;;;;38.75;18.87;;;;;;;6.24;100.00;98139.13;4379952;32;20521;-96
2022/12/24 00:47:54;;;;;;;46.20;22.20;;;;;;;6.30;100.00;98142.97;4367855;32;20173;-95
2022/12/24 00:50:21;;;;;;;45.17;23.45;;;;;;;6.34;100.00;98131.38;4379975;32;20118;-95
2022/12/24 00:52:49;;;;;;;49.50;24.08;;;;;;;6.25;100.00;98126.94;4393284;32;20451;-95
2022/12/24 00:55:19;;;;;;;40.60;22.77;;;;;;;6.15;100.00;98119.06;4380089;32;20091;-95
2022/12/24 00:57:46;;;;;;;47.55;23.40;;;;;;;6.08;100.00;98115.31;4380191;32;20102;-94
2022/12/24 01:00:16;;;;;;;48.72;21.80;;;;;;;6.04;100.00;98107.75;4379945;32;20137;-95
2022/12/24 01:02:43;;;;;;;58.60;22.75;;;;;;;6.03;100.00;98100.06;4393340;32;20391;-96
2022/12/24 01:05:11;;;;;;;45.90;22.58;;;;;;;6.00;100.00;98092.53;4379969;32;20518;-95
2022/12/24 01:07:43;;;;;;;45.63;19.87;;;;;;;5.92;100.00;98076.69;4367759;32;20099;-95
2022/12/24 01:10:16;;;;;;;43.92;20.92;;;;;;;5.88;100.00;98076.12;4355447;32;20490;-95
2022/12/24 01:12:44;;;;;;;42.28;20.67;;;;;;;5.91;100.00;98062.06;4365023;32;20548;-96
2022/12/24 01:15:13;;;;;;;39.83;20.90;;;;;;;5.68;100.00;98036.16;4352596;32;20145;-95
2022/12/24 01:17:40;;;;;;;37.28;19.95;;;;;;;5.56;100.00;98031.94;4364261;32;20141;-95
2022/12/24 01:20:10;;;;;;;44.72;21.67;;;;;;;5.68;100.00;98025.75;4364765;32;20103;-95
2022/12/24 01:22:37;;;;;;;44.80;21.87;;;;;;;5.71;100.00;98035.06;4364712;32;20534;-95
2022/12/24 01:25:05;;;;;;;46.28;21.00;;;;;;;5.78;100.00;98044.00;4364582;32;20136;-95
2022/12/24 01:27:32;;;;;;;43.42;22.90;;;;;;;5.74;100.00;98038.25;4364567;32;20468;-95
2022/12/24 01:29:59;;;;;;;41.58;20.65;;;;;;;5.81;100.00;98047.22;4364535;32;20486;-94
2022/12/24 01:32:26;;;;;;;41.10;20.15;;;;;;;5.85;100.00;98040.78;4364472;32;20151;-95
2022/12/24 01:34:54;;;;;;;43.50;20.62;;;;;;;5.86;100.00;98045.03;4364067;32;20109;-94
2022/12/24 01:37:21;;;;;;;45.47;22.00;;;;;;;5.92;100.00;98048.09;4366542;32;20111;-95
2022/12/24 01:39:48;;;;;;;48.28;22.33;;;;;;;5.84;100.00;98033.97;4371503;32;20152;-95
2022/12/24 01:45:36;;;;;;;37.25;19.37;;;;;;;5.74;100.00;98042.59;4383724;32;20133;-95
2022/12/24 01:48:04;;;;;;;39.95;19.77;;;;;;;5.82;100.00;98046.25;4381680;32;20162;-95
2022/12/24 01:50:31;;;;;;;45.63;20.48;;;;;;;5.86;100.00;98044.22;4381955;32;20122;-96
2022/12/24 01:52:59;;;;;;;43.50;20.62;;;;;;;5.85;100.00;98046.00;4381594;32;20137;-95
2022/12/24 01:55:26;;;;;;;44.33;19.95;;;;;;;5.85;100.00;98045.16;4381660;32;20117;-96
2022/12/24 01:57:55;;;;;;;42.38;20.95;;;;;;;5.72;100.00;98050.53;4381570;32;20503;-95
2022/12/24 02:00:23;;;;;;;44.13;20.92;;;;;;;5.73;100.00;98054.78;4369027;32;20201;-95
2022/12/24 02:02:51;;;;;;;46.90;21.20;;;;;;;5.78;100.00;98050.03;4381515;32;20116;-95
2022/12/24 02:05:33;;;;;;;41.58;21.25;;;;;;;5.82;100.00;98048.84;4381470;32;20116;-95
2022/12/24 02:08:03;;;;;;;44.00;21.45;;;;;;;5.77;100.00;98037.16;4393833;32;20102;-95
2022/12/24 02:10:30;;;;;;;44.53;20.33;;;;;;;5.82;100.00;98045.44;4381439;32;20174;-95
2022/12/24 02:12:58;;;;;;;42.33;21.55;;;;;;;5.81;100.00;98055.00;4369053;32;20098;-95
2022/12/24 02:15:28;;;;;;;42.53;20.35;;;;;;;5.91;100.00;98051.66;4393898;32;20098;-96
2022/12/24 02:18:01;;;;;;;42.00;19.35;;;;;;;5.82;100.00;98064.44;4369032;32;20129;-95
2022/12/24 02:20:47;;;;;;;38.92;19.80;;;;;;;5.81;100.00;98096.59;4395005;32;20098;-95
2022/12/24 02:23:33;;;;;;;43.80;20.65;;;;;;;5.82;100.00;98123.41;4394889;32;20455;-95
2022/12/24 02:26:25;;;;;;;45.72;21.52;;;;;;;5.89;100.00;98113.31;4394916;32;20451;-96
2022/12/24 02:29:17;;;;;;;46.00;20.55;;;;;;;5.86;100.00;98099.62;4395052;32;20137;-95
2022/12/24 02:31:50;;;;;;;41.42;20.83;;;;;;;5.86;100.00;98084.03;4381311;32;20180;-94
2022/12/24 02:34:29;;;;;;;42.97;20.15;;;;;;;5.77;100.00;98063.16;4381064;32;20094;-95
2022/12/24 02:37:11;;;;;;;44.85;20.80;;;;;;;5.80;100.00;98053.34;4393644;32;20087;-96
2022/12/24 02:39:40;;;;;;;49.58;21.65;;;;;;;5.74;100.00;98058.19;4381082;32;20095;-95
2022/12/24 02:42:10;;;;;;;44.53;20.73;;;;;;;5.71;100.00;98051.50;4381224;32;20157;-95
2022/12/24 02:44:48;;;;;;;47.28;20.50;;;;;;;5.72;100.00;98040.13;4368677;32;20090;-96
2022/12/24 02:47:17;;;;;;;42.35;20.05;;;;;;;5.84;100.00;98057.34;4368351;32;20082;-95
2022/12/24 02:49:45;;;;;;;44.08;20.60;;;;;;;5.83;100.00;98050.50;4394961;32;20095;-95
2022/12/24 02:52:34;;;;;;;40.45;19.77;;;;;;;5.87;100.00;98048.47;4368929;32;20169;-95
2022/12/24 02:55:11;;;;;;;38.15;19.77;;;;;;;5.79;100.00;98050.87;4368840;32;20115;-95
2022/12/24 02:57:57;;;;;;;41.37;19.37;;;;;;;5.85;100.00;98066.78;4380895;32;20094;-95
2022/12/24 03:00:26;;;;;;;43.05;21.58;;;;;;;5.85;100.00;98066.78;4380753;32;20114;-95
2022/12/24 03:03:18;;;;;;;38.58;20.23;;;;;;;5.87;100.00;98070.09;4393765;32;20597;-95
2022/12/24 03:06:02;;;;;;;37.45;19.20;;;;;;;5.83;100.00;98079.09;4393609;32;20520;-95
2022/12/24 03:08:37;;;;;;;41.05;20.50;;;;;;;5.83;100.00;98076.50;4393681;32;20098;-95
2022/12/24 03:11:08;;;;;;;38.55;19.60;;;;;;;5.77;100.00;98073.53;4394616;32;20090;-96
2022/12/24 03:13:36;;;;;;;42.13;21.42;;;;;;;5.72;100.00;98071.31;4393401;32;20400;-95
2022/12/24 03:16:05;;;;;;;40.60;19.87;;;;;;;5.74;100.00;98077.25;4381071;32;20113;-95
2022/12/24 03:18:32;;;;;;;38.67;19.52;;;;;;;5.71;100.00;98074.88;4381190;32;20156;-95
2022/12/24 03:21:05;;;;;;;40.47;19.55;;;;;;;5.67;100.00;98063.09;4393301;32;20136;-96
2022/12/24 03:23:33;;;;;;;41.45;21.02;;;;;;;5.72;100.00;98066.13;4381123;32;20110;-95
2022/12/24 03:26:05;;;;;;;41.55;21.23;;;;;;;5.71;100.00;98064.50;4368613;32;20415;-95
2022/12/24 03:28:33;;;;;;;42.65;21.42;;;;;;;5.67;100.00;98057.87;4356314;32;20448;-95
2022/12/24 03:31:03;;;;;;;50.38;22.15;;;;;;;5.76;100.00;98053.72;4368462;32;20129;-95
2022/12/24 03:33:30;;;;;;;46.20;23.45;;;;;;;5.71;100.00;98063.66;4368660;32;20110;-95
2022/12/24 03:35:57;;;;;;;51.30;24.67;;;;;;;5.68;100.00;98064.75;4381157;32;20106;-95
2022/12/24 03:38:25;;;;;;;50.33;24.30;;;;;;;5.64;100.00;98066.75;4393262;32;20090;-95
2022/12/24 03:40:52;;;;;;;50.15;24.00;;;;;;;5.71;100.00;98079.25;4380528;32;20157;-95
2022/12/24 03:43:19;;;;;;;55.28;25.52;;;;;;;5.75;100.00;98085.84;4380861;32;20122;-94
2022/12/24 03:45:46;;;;;;;51.40;25.50;;;;;;;5.69;100.00;98085.41;4380778;32;20558;-95
2022/12/24 03:48:13;;;;;;;52.03;23.40;;;;;;;5.69;100.00;98088.00;4368551;32;20104;-95
2022/12/24 03:50:41;;;;;;;46.00;23.50;;;;;;;5.68;100.00;98101.13;4368366;32;20106;-95
2022/12/24 03:53:08;;;;;;;51.08;24.25;;;;;;;5.68;100.00;98103.72;4380835;32;20110;-96
2022/12/24 03:55:36;;;;;;;48.10;22.87;;;;;;;5.74;100.00;98099.78;4393096;32;20094;-94
2022/12/24 03:58:04;;;;;;;50.10;22.37;;;;;;;5.74;100.00;98104.97;4379961;32;20094;-94
2022/12/24 04:00:31;;;;;;;53.20;22.60;;;;;;;5.74;100.00;98102.38;4355593;32;20519;-95
2022/12/24 04:02:58;;;;;;;47.85;22.83;;;;;;;5.71;100.00;98103.47;4368250;32;20103;-96
2022/12/24 04:05:25;;;;;;;45.08;22.55;;;;;;;5.70;100.00;98099.22;4380578;32;20098;-95
2022/12/24 04:07:52;;;;;;;42.08;21.48;;;;;;;5.74;100.00;98104.97;4393024;32;20094;-95
2022/12/24 04:10:20;;;;;;;44.25;20.95;;;;;;;5.78;100.00;98102.00;4368802;32;20160;-95
2022/12/24 04:12:47;;;;;;;47.22;20.02;;;;;;;5.87;100.00;98103.91;4368114;32;20565;-94
2022/12/24 04:15:14;;;;;;;41.17;19.62;;;;;;;5.85;100.00;98103.19;4368190;32;20086;-95
2022/12/24 04:17:42;;;;;;;44.55;20.83;;;;;;;5.76;100.00;98110.91;4368380;32;20109;-95
2022/12/24 04:20:09;;;;;;;40.50;19.10;;;;;;;5.75;100.00;98112.66;4380928;32;20103;-95
2022/12/24 04:22:36;;;;;;;38.60;19.25;;;;;;;5.78;100.00;98111.59;4355649;32;20153;-95
2022/12/24 04:25:04;;;;;;;41.55;19.90;;;;;;;5.77;100.00;98109.94;4380708;32;20160;-95
2022/12/24 04:27:31;;;;;;;46.85;19.95;;;;;;;5.82;100.00;98116.41;4392636;32;20116;-95
2022/12/24 04:29:58;;;;;;;44.60;21.48;;;;;;;5.76;100.00;98114.31;4380531;32;20219;-95
2022/12/24 04:32:26;;;;;;;42.88;20.77;;;;;;;5.69;100.00;98120.94;4392746;32;20120;-95
2022/12/24 04:34:53;;;;;;;47.33;22.00;;;;;;;5.66;100.00;98110.78;4367867;32;20113;-95
2022/12/24 04:37:20;;;;;;;46.30;21.77;;;;;;;5.80;100.00;98110.53;4380187;32;20078;-95
2022/12/24 04:39:48;;;;;;;40.78;20.12;;;;;;;5.92;100.00;98107.88;4381184;32;20151;-96
2022/12/24 04:42:15;;;;;;;39.05;19.67;;;;;;;5.87;100.00;98108.25;4380159;32;20157;-95
2022/12/24 04:44:42;;;;;;;38.03;19.37;;;;;;;5.92;100.00;98100.91;4380024;32;20502;-95
2022/12/24 04:47:10;;;;;;;38.83;18.27;;;;;;;5.95;100.00;98110.22;4368202;32;20094;-95
2022/12/24 04:49:37;;;;;;;33.10;18.15;;;;;;;5.99;100.00;98114.28;4355165;32;20186;-95
2022/12/24 04:52:04;;;;;;;35.63;18.87;;;;;;;6.07;100.00;98116.25;4392587;32;20128;-96
2022/12/24 04:54:31;;;;;;;37.05;19.37;;;;;;;6.06;100.00;98107.62;4380123;32;20114;-95
2022/12/24 04:56:59;;;;;;;39.40;17.92;;;;;;;6.06;100.00;98106.78;4380096;32;20137;-95
2022/12/24 04:59:26;;;;;;;39.00;19.27;;;;;;;6.08;100.00;98116.13;4367457;32;20110;-95
2022/12/24 05:01:53;;;;;;;37.60;18.62;;;;;;;6.05;100.00;98111.16;4380099;32;20170;-95
2022/12/24 05:04:21;;;;;;;33.28;18.52;;;;;;;5.99;100.00;98114.28;4393556;32;20090;-95
2022/12/24 05:06:48;;;;;;;40.42;17.73;;;;;;;6.01;100.00;98112.34;4380051;32;20086;-95
2022/12/24 05:09:15;;;;;;;34.50;16.62;;;;;;;5.99;100.00;98119.47;4392232;32;20495;-95
2022/12/24 05:11:42;;;;;;;34.55;17.90;;;;;;;5.96;100.00;98111.88;4395337;32;20098;-95
2022/12/24 05:14:09;;;;;;;37.58;17.70;;;;;;;6.00;100.00;98126.31;4381830;32;20082;-95
2022/12/24 05:16:37;;;;;;;34.47;17.23;;;;;;;6.03;100.00;98120.88;4381766;32;20090;-95
2022/12/24 05:19:04;;;;;;;29.95;16.48;;;;;;;6.10;100.00;98122.03;4381830;32;20400;-95
2022/12/24 05:21:31;;;;;;;34.40;16.05;;;;;;;6.15;100.00;98124.25;4369436;32;20133;-95
2022/12/24 05:26:48;;;;;;;33.25;16.90;;;;;;;6.26;100.00;98123.38;4383780;32;20090;-95
2022/12/24 05:29:16;;;;;;;31.12;15.23;;;;;;;6.29;100.00;98136.94;4381716;32;20095;-95
2022/12/24 05:31:44;;;;;;;33.45;16.42;;;;;;;6.30;100.00;98145.56;4394237;32;20129;-95
2022/12/24 05:34:13;;;;;;;33.10;16.85;;;;;;;6.31;100.00;98148.03;4381850;32;20168;-96
2022/12/24 05:36:42;;;;;;;34.55;16.12;;;;;;;6.31;100.00;98155.84;4381977;32;20101;-95
2022/12/24 05:39:14;;;;;;;29.52;14.57;;;;;;;6.05;100.00;98155.38;4369121;32;20098;-95
2022/12/24 05:41:43;;;;;;;25.05;13.90;;;;;;;6.22;100.00;98154.84;4382087;32;20102;-95
2022/12/24 05:44:10;;;;;;;29.50;15.00;;;;;;;6.23;100.00;98158.25;4369094;32;20086;-95
2022/12/24 05:46:37;;;;;;;29.30;15.25;;;;;;;6.07;100.00;98153.50;4381639;32;20435;-96
2022/12/24 05:49:05;;;;;;;31.90;15.35;;;;;;;6.25;100.00;98139.94;4369498;32;20110;-95
2022/12/24 05:51:32;;;;;;;24.50;13.45;;;;;;;6.33;100.00;98132.34;4381616;32;20137;-96
2022/12/24 05:53:59;;;;;;;28.87;14.50;;;;;;;6.32;100.00;98139.31;4381616;32;20517;-95
2022/12/24 05:56:27;;;;;;;27.33;13.40;;;;;;;6.32;100.00;98141.09;4369162;32;20152;-95
2022/12/24 05:58:54;;;;;;;23.60;13.02;;;;;;;6.38;100.00;98156.19;4369188;32;20107;-95
2022/12/24 06:01:21;;;;;;;27.30;13.55;;;;;;;6.37;100.00;98159.72;4368972;32;20128;-95
2022/12/24 06:03:50;;;;;;;25.50;12.93;;;;;;;6.37;100.00;98164.94;4395034;32;20161;-94
2022/12/24 06:06:20;;;;;;;24.48;12.27;;;;;;;6.37;100.00;98170.13;4395364;32;20163;-96
2022/12/24 06:08:48;;;;;;;22.13;11.43;;;;;;;6.34;100.00;98162.59;4369571;32;20162;-95
2022/12/24 06:11:17;;;;;;;22.33;11.65;;;;;;;6.42;100.00;98165.41;4369369;32;20527;-95
2022/12/24 06:13:45;;;;;;;25.17;10.80;;;;;;;6.44;100.00;98160.88;4369428;32;20117;-95
2022/12/24 06:16:15;;;;;;;19.73;10.68;;;;;;;6.49;100.00;98174.34;4381298;32;20087;-94
2022/12/24 06:18:43;;;;;;;24.05;11.30;;;;;;;6.49;100.00;98169.13;4381563;32;20145;-95
2022/12/24 06:21:11;;;;;;;21.98;10.48;;;;;;;6.57;100.00;98182.34;4381155;32;20114;-95
2022/12/24 06:23:40;;;;;;;22.87;11.45;;;;;;;6.60;100.00;98175.22;4381492;32;20107;-94
2022/12/24 06:26:11;;;;;;;17.80;10.48;;;;;;;6.62;100.00;98188.97;4381547;32;20133;-95
2022/12/24 06:28:38;;;;;;;22.87;10.98;;;;;;;6.57;100.00;98190.16;4381510;32;20098;-95
2022/12/24 06:31:11;;;;;;;17.33;10.38;;;;;;;6.57;100.00;98177.16;4368890;32;20131;-95
2022/12/24 06:33:38;;;;;;;21.42;10.85;;;;;;;6.64;100.00;98176.62;4393610;32;20608;-95
2022/12/24 06:36:12;;;;;;;21.60;10.80;;;;;;;6.61;100.00;98177.72;4393830;32;20447;-94
2022/12/24 06:38:45;;;;;;;19.73;10.63;;;;;;;6.67;100.00;98182.41;4370071;32;20102;-96
2022/12/24 06:41:12;;;;;;;19.50;11.00;;;;;;;6.70;100.00;98191.75;4381336;32;20520;-95
2022/12/24 06:43:44;;;;;;;18.70;9.88;;;;;;;6.85;100.00;98190.47;4381104;32;20094;-95
2022/12/24 06:46:12;;;;;;;18.95;10.00;;;;;;;6.82;100.00;98195.94;4381470;32;20507;-96
2022/12/24 06:48:39;;;;;;;23.52;11.15;;;;;;;6.80;100.00;98195.25;4369051;32;20620;-95
2022/12/24 06:51:06;;;;;;;21.55;11.65;;;;;;;6.80;100.00;98207.41;4381098;32;20110;-95
2022/12/24 06:53:34;;;;;;;21.73;11.15;;;;;;;6.81;100.00;98207.28;4381207;32;20087;-95
2022/12/24 06:56:06;;;;;;;22.75;12.18;;;;;;;6.84;100.00;98207.03;4368935;32;20110;-95
2022/12/24 06:58:33;;;;;;;32.13;16.65;;;;;;;6.81;100.00;98206.47;4368727;32;20526;-95
2022/12/24 07:01:02;;;;;;;26.52;14.35;;;;;;;6.81;100.00;98219.50;4395126;32;20533;-95
2022/12/24 07:03:29;;;;;;;22.87;11.90;;;;;;;6.80;100.00;98217.84;4356290;32;20124;-95
2022/12/24 07:05:58;;;;;;;17.77;10.70;;;;;;;6.80;100.00;98225.66;4381143;32;20128;-95
2022/12/24 07:08:25;;;;;;;17.45;9.05;;;;;;;6.85;100.00;98226.91;4368803;32;20446;-95
2022/12/24 07:10:52;;;;;;;14.43;6.78;;;;;;;7.03;100.00;98218.53;4393570;32;20132;-96
2022/12/24 07:13:21;;;;;;;11.98;6.43;;;;;;;7.16;100.00;98219.19;4368967;32;20091;-95
2022/12/24 07:15:59;;;;;;;13.98;7.53;;;;;;;7.26;100.00;98225.25;4368712;32;20097;-95
2022/12/24 07:18:27;;;;;;;11.68;6.12;;;;;;;7.32;100.00;98229.09;4381196;32;20129;-95
2022/12/24 07:20:54;;;;;;;10.70;5.62;;;;;;;7.46;100.00;98225.31;4368563;32;20114;-95
2022/12/24 07:23:21;;;;;;;9.13;5.12;;;;;;;7.57;100.00;98227.88;4356503;32;20106;-95
2022/12/24 07:25:49;;;;;;;8.45;4.78;;;;;;;7.71;100.00;98218.03;4368951;32;20090;-95
2022/12/24 07:28:16;;;;;;;7.72;4.97;;;;;;;7.75;100.00;98214.19;4394587;32;20754;-95
2022/12/24 07:30:47;;;;;;;12.18;4.28;;;;;;;7.84;100.00;98220.38;4393699;32;20159;-95
2022/12/24 07:33:14;;;;;;;8.48;4.05;;;;;;;7.90;100.00;98225.91;4368688;32;20439;-95
2022/12/24 07:35:41;;;;;;;7.43;4.10;;;;;;;7.90;100.00;98228.53;4368795;32;20105;-95
2022/12/24 07:38:08;;;;;;;6.65;3.72;;;;;;;7.97;100.00;98240.03;4368689;32;20182;-95
2022/12/24 07:40:36;;;;;;;6.55;3.17;;;;;;;8.07;100.00;98241.84;4380703;32;20428;-96
2022/12/24 07:43:04;;;;;;;8.35;3.50;;;;;;;8.10;100.00;98245.03;4381058;32;20396;-96
2022/12/24 07:45:31;;;;;;;5.40;2.62;;;;;;;8.25;100.00;98248.09;4394472;32;20444;-95
2022/12/24 07:47:58;;;;;;;9.68;2.90;;;;;;;8.35;100.00;98240.25;4381292;32;20102;-95
2022/12/24 07:50:25;;;;;;;5.25;2.70;;;;;;;8.44;100.00;98252.50;4368592;32;20125;-96
2022/12/24 07:52:52;;;;;;;3.92;2.33;;;;;;;8.65;100.00;98252.38;4380888;32;20146;-96
2022/12/24 07:55:20;;;;;;;5.57;2.42;;;;;;;8.75;100.00;98248.94;4368664;32;20494;-95
2022/12/24 07:57:48;;;;;;;3.12;2.00;;;;;;;8.88;100.00;98260.75;4380519;32;20133;-95
2022/12/24 08:00:15;;;;;;;4.18;2.20;;;;;;;8.95;100.00;98260.19;4350531;32;180052;-96
2022/12/24 08:02:42;;;;;;;3.85;2.00;;;;;;;9.05;100.00;98255.78;4394679;32;20566;-95
2022/12/24 08:05:10;;;;;;;4.30;2.12;;;;;;;9.22;100.00;98259.50;4380874;32;20086;-96
2022/12/24 08:07:37;;;;;;;3.40;1.87;;;;;;;9.39;100.00;98277.03;4368263;32;20114;-95
2022/12/24 08:10:05;;;;;;;2.70;1.45;;;;;;;9.46;100.00;98284.31;4380935;32;20098;-95
2022/12/24 08:12:32;;;;;;;4.22;1.80;;;;;;;9.51;100.00;98287.34;4368216;32;20152;-96
2022/12/24 08:15:00;;;;;;;3.62;1.65;;;;;;;9.54;100.00;98287.06;4368170;32;20113;-95
2022/12/24 08:17:27;;;;;;;4.43;2.35;;;;;;;9.45;100.00;98288.72;4380843;32;20102;-95
2022/12/24 08:19:58;;;;;;;6.80;2.15;;;;;;;9.55;100.00;98296.53;4381112;32;20164;-96
2022/12/24 08:22:25;;;;;;;2.60;1.85;;;;;;;9.46;100.00;98316.50;4368159;32;20099;-95
2022/12/24 08:24:53;;;;;;;4.97;1.95;;;;;;;9.47;100.00;98318.16;4380749;32;20137;-95
2022/12/24 08:27:20;;;;;;;3.08;1.80;;;;;;;9.48;100.00;98319.81;4368214;32;20094;-96
2022/12/24 08:29:47;;;;;;;3.97;1.73;;;;;;;9.56;100.00;98334.81;4380481;32;20463;-96
2022/12/24 08:32:15;;;;;;;5.95;2.03;;;;;;;9.69;100.00;98337.94;4368474;32;20561;-95
2022/12/24 08:34:42;;;;;;;4.97;1.92;;;;;;;9.76;100.00;98336.41;4368071;32;20098;-95
2022/12/24 08:37:09;;;;;;;2.95;1.62;;;;;;;9.81;100.00;98340.37;4380378;32;20106;-95
2022/12/24 08:39:36;;;;;;;4.22;1.75;;;;;;;9.77;100.00;98351.12;4380306;32;20129;-95
2022/12/24 08:42:04;;;;;;;4.68;2.12;;;;;;;9.71;100.00;98361.34;4368079;32;20094;-96
2022/12/24 08:44:31;;;;;;;6.40;2.05;;;;;;;9.71;100.00;98366.56;4394219;32;20114;-95
2022/12/24 08:46:58;;;;;;;5.75;2.22;;;;;;;9.70;100.00;98378.81;4382361;32;20133;-96
2022/12/24 08:49:25;;;;;;;3.25;1.80;;;;;;;9.84;100.00;98376.72;4357343;32;20176;-96
2022/12/24 08:51:53;;;;;;;2.60;1.60;;;;;;;9.74;100.00;98371.53;4382077;32;20109;-95
2022/12/24 08:54:21;;;;;;;3.00;1.90;;;;;;;9.67;100.00;98365.19;4369894;32;20083;-95
2022/12/24 08:56:48;;;;;;;5.90;2.12;;;;;;;9.68;100.00;98374.69;4369667;32;20126;-95
2022/12/24 08:59:16;;;;;;;4.85;1.67;;;;;;;9.63;100.00;98374.28;4357240;32;20130;-96
2022/12/24 09:01:43;;;;;;;5.00;2.30;;;;;;;9.63;100.00;98385.59;4382081;32;20434;-95
2022/12/24 09:04:11;;;;;;;9.77;2.83;;;;;;;9.58;100.00;98387.78;4382112;32;20079;-95
2022/12/24 09:06:38;;;;;;;5.37;2.90;;;;;;;9.59;100.00;98395.47;4381969;32;20110;-96
2022/12/24 09:09:06;;;;;;;6.80;2.47;;;;;;;9.58;100.00;98396.47;4382041;32;20176;-95
2022/12/24 09:11:34;;;;;;;5.28;2.37;;;;;;;9.47;100.00;98406.25;4369704;32;20098;-95
2022/12/24 09:14:01;;;;;;;4.22;2.50;;;;;;;9.46;100.00;98409.81;4382080;32;20113;-96
2022/12/24 09:16:29;;;;;;;5.62;2.62;;;;;;;9.38;100.00;98408.72;4381940;32;20154;-95
2022/12/24 09:18:57;;;;;;;5.85;2.42;;;;;;;9.29;100.00;98413.97;4369413;32;20494;-95
2022/12/24 09:21:24;;;;;;;6.18;2.80;;;;;;;9.33;100.00;98416.16;4382359;32;20156;-95
2022/12/24 09:23:51;;;;;;;5.10;2.12;;;;;;;9.30;100.00;98420.84;4369448;32;20145;-95
2022/12/24 09:26:21;;;;;;;4.55;2.50;;;;;;;9.33;100.00;98416.16;4381701;32;20153;-96
2022/12/24 09:28:49;;;;;;;4.93;2.45;;;;;;;9.33;100.00;98418.78;4382157;32;20101;-95
2022/12/24 09:31:17;;;;;;;5.37;2.30;;;;;;;9.40;100.00;98422.50;4381953;32;20455;-95
2022/12/24 09:33:47;;;;;;;5.62;2.08;;;;;;;9.43;100.00;98416.13;4381950;32;20447;-96
2022/12/24 09:36:14;;;;;;;7.15;2.60;;;;;;;9.53;100.00;98427.44;4395354;32;20172;-95
2022/12/24 09:38:42;;;;;;;4.37;2.30;;;;;;;9.62;100.00;98430.19;4369439;32;20101;-96
2022/12/24 09:41:12;;;;;;;4.82;2.22;;;;;;;9.79;100.00;98426.03;4369300;32;20126;-96
2022/12/24 09:43:45;;;;;;;6.10;2.05;;;;;;;9.89;100.00;98426.84;4395509;32;20106;-95
2022/12/24 09:46:26;;;;;;;7.47;2.22;;;;;;;9.94;100.00;98427.22;4381888;32;20154;-96
2022/12/24 09:48:57;;;;;;;5.18;1.70;;;;;;;10.08;100.00;98421.56;4369046;32;20193;-94
2022/12/24 09:51:42;;;;;;;3.22;1.70;;;;;;;10.18;100.00;98416.28;4369386;32;20094;-95
2022/12/24 09:54:32;;;;;;;3.47;1.70;;;;;;;10.24;100.00;98420.12;4369552;32;20081;-96
2022/12/24 09:57:05;;;;;;;5.68;2.05;;;;;;;10.21;100.00;98421.22;4380885;32;20110;-95
2022/12/24 09:59:42;;;;;;;2.65;1.70;;;;;;;10.23;100.00;98424.50;4369195;32;20106;-96
2022/12/24 10:02:14;;;;;;;3.75;1.80;;;;;;;10.30;100.00;98437.87;4369744;32;20355;-96
2022/12/24 10:04:42;;;;;;;7.40;2.25;;;;;;;10.29;100.00;98441.44;4382081;32;20079;-95
2022/12/24 10:07:39;;;;;;;5.25;1.58;;;;;;;10.31;100.00;98450.00;4356954;32;20620;-95
2022/12/24 10:10:30;;;;;;;4.68;1.70;;;;;;;10.36;100.00;98454.84;4369104;32;20098;-95
2022/12/24 10:13:23;;;;;;;4.65;1.70;;;;;;;10.17;100.00;98453.06;4369468;32;20116;-95
2022/12/24 10:16:10;;;;;;;3.35;1.58;;;;;;;10.15;100.00;98449.78;4395426;32;20095;-96
2022/12/24 10:18:53;;;;;;;2.30;1.37;;;;;;;10.20;100.00;98452.78;4395397;32;20099;-96
2022/12/24 10:22:07;;;;;;;7.57;2.10;;;;;;;10.38;100.00;98466.00;4381828;32;20193;-96
2022/12/24 10:24:42;;;;;;;3.03;1.65;;;;;;;10.36;100.00;98457.47;4369255;32;20086;-96
2022/12/24 10:27:20;;;;;;;3.33;1.50;;;;;;;10.39;100.00;98460.59;4369865;32;20101;-96
2022/12/24 10:29:52;;;;;;;2.28;1.27;;;;;;;10.48;100.00;98464.16;4381305;32;20110;-95
2022/12/24 10:32:28;;;;;;;4.75;1.50;;;;;;;10.65;100.00;98468.63;4381790;32;20221;-96
2022/12/24 10:35:13;;;;;;;2.97;1.48;;;;;;;10.71;100.00;98456.75;4381576;32;20511;-95
2022/12/24 10:37:46;;;;;;;2.40;1.52;;;;;;;10.74;100.00;98468.75;4394929;32;20145;-95
2022/12/24 10:40:24;;;;;;;3.80;1.75;;;;;;;10.92;100.00;98474.03;4385297;32;20099;-96
2022/12/24 10:42:52;;;;;;;3.10;1.10;;;;;;;11.14;100.00;98470.16;4395048;32;20463;-95
2022/12/24 10:45:21;;;;;;;2.50;1.10;;;;;;;11.11;100.00;98484.41;4395137;32;20090;-96
2022/12/24 10:47:51;;;;;;;2.78;1.10;;;;;;;11.09;100.00;98478.47;4381119;32;20156;-96
2022/12/24 10:50:34;;;;;;;2.70;1.20;;;;;;;11.19;100.00;98481.03;4381433;32;20137;-96
2022/12/24 10:53:26;;;;;;;3.65;1.00;;;;;;;11.10;100.00;98476.69;4368887;32;20129;-95
2022/12/24 10:56:02;;;;;;;2.47;1.00;;;;;;;11.09;100.00;98473.22;4394722;32;20440;-94
2022/12/24 10:58:29;;;;;;;3.78;1.40;;;;;;;11.04;100.00;98485.94;4369056;32;20120;-95
2022/12/24 11:00:57;;;;;;;2.80;1.30;;;;;;;11.13;100.00;98484.25;4381182;32;20576;-95
2022/12/24 11:03:30;;;;;;;3.00;1.30;;;;;;;11.08;100.00;98489.09;4369181;32;20174;-95
2022/12/24 11:06:08;;;;;;;3.42;1.58;;;;;;;11.18;100.00;98485.44;4381404;32;20157;-95
2022/12/24 11:08:38;;;;;;;2.03;0.95;;;;;;;11.02;100.00;98487.88;4381024;32;20082;-96
2022/12/24 11:11:18;;;;;;;5.85;1.48;;;;;;;10.97;100.00;98485.69;4369152;32;20099;-95
2022/12/24 11:13:49;;;;;;;3.97;0.93;;;;;;;10.92;100.00;98490.56;4369241;32;20369;-94
2022/12/24 11:16:19;;;;;;;3.90;0.95;;;;;;;10.87;100.00;98505.06;4394891;32;20183;-95
2022/12/24 11:18:49;;;;;;;2.05;0.75;;;;;;;10.77;100.00;98490.22;4381438;32;20148;-95
2022/12/24 11:21:20;;;;;;;2.05;0.90;;;;;;;10.81;100.00;98512.56;4381504;32;20152;-95
2022/12/24 11:23:57;;;;;;;2.72;1.02;;;;;;;10.77;100.00;98508.56;4381158;32;20106;-95
2022/12/24 11:26:27;;;;;;;2.95;0.77;;;;;;;10.69;100.00;98502.38;4393717;32;20090;-95
2022/12/24 11:29:03;;;;;;;6.65;1.30;;;;;;;10.58;100.00;98508.63;4394878;32;20117;-95
2022/12/24 11:31:34;;;;;;;3.20;1.30;;;;;;;10.62;100.00;98510.81;4381287;32;20125;-95
2022/12/24 11:34:16;;;;;;;2.42;0.70;;;;;;;10.63;100.00;98519.53;4381459;32;20114;-95
2022/12/24 11:36:44;;;;;;;7.55;0.90;;;;;;;10.57;100.00;98514.87;4380974;32;20154;-96
2022/12/24 11:39:23;;;;;;;4.50;1.20;;;;;;;10.61;100.00;98510.97;4368515;32;20098;-95
2022/12/24 11:41:52;;;;;;;2.85;1.27;;;;;;;10.60;100.00;98515.41;4368935;32;20144;-95